createdAt,value
2018-08-07T00:01:15.995Z,95351.85
2018-08-07T00:03:45.038Z,95362.77
2018-08-07T00:06:14.098Z,95361.28
2018-08-07T00:08:44.129Z,95365.91
2018-08-07T00:11:13.178Z,95366.05
2018-08-07T00:13:42.234Z,95363.95
2018-08-07T00:16:11.272Z,95368.92
2018-08-07T00:18:40.329Z,95364.75
2018-08-07T00:21:09.383Z,95367.70
2018-08-07T00:23:38.417Z,95367.03
2018-08-07T00:26:07.478Z,95362.04
2018-08-07T00:28:36.534Z,95359.58
2018-08-07T00:31:05.599Z,95365.42
2018-08-07T00:33:34.645Z,95366.23
2018-08-07T00:36:03.696Z,95364.11
2018-08-07T00:41:08.491Z,95360.69
2018-08-07T00:43:37.546Z,95355.99
2018-08-07T00:46:06.658Z,95355.50
2018-08-07T00:48:35.714Z,95354.00
2018-08-07T00:51:04.757Z,95353.92
2018-08-07T00:53:33.805Z,95349.94
2018-08-07T00:56:02.917Z,95353.68
2018-08-07T00:58:32.089Z,95351.45
2018-08-07T01:01:02.073Z,95346.05
2018-08-07T01:03:31.277Z,95348.09
2018-08-07T01:06:00.326Z,95351.18
2018-08-07T01:08:29.373Z,95344.83
2018-08-07T01:10:59.401Z,95345.31
2018-08-07T01:13:29.337Z,95338.98
2018-08-07T01:18:34.191Z,95343.81
2018-08-07T01:21:04.201Z,95341.42
2018-08-07T01:23:33.237Z,95344.00
2018-08-07T01:26:02.315Z,95347.25
2018-08-07T01:31:08.072Z,95343.46
2018-08-07T01:33:37.141Z,95351.46
2018-08-07T01:36:06.190Z,95343.41
2018-08-07T01:38:35.249Z,95345.06
2018-08-07T01:41:05.283Z,95345.03
2018-08-07T01:43:34.432Z,95346.19
2018-08-07T01:46:03.495Z,95342.10
2018-08-07T01:48:32.828Z,95342.82
2018-08-07T01:51:01.887Z,95346.41
2018-08-07T01:53:31.918Z,95345.38
2018-08-07T01:56:01.059Z,95346.88
2018-08-07T01:58:30.138Z,95346.31
2018-08-07T02:03:34.886Z,95348.10
2018-08-07T02:06:03.945Z,95345.40
2018-08-07T02:08:35.026Z,95348.19
2018-08-07T02:14:08.887Z,95344.37
2018-08-07T02:16:41.405Z,95348.11
2018-08-07T02:19:11.613Z,95344.64
2018-08-07T02:21:44.709Z,95349.48
2018-08-07T02:24:15.743Z,95344.98
2018-08-07T02:26:44.806Z,95345.55
2018-08-07T02:29:13.858Z,95341.78
2018-08-07T02:31:42.904Z,95338.81
2018-08-07T02:34:11.969Z,95331.30
2018-08-07T02:36:41.029Z,95332.56
2018-08-07T02:39:10.075Z,95332.41
2018-08-07T02:41:39.147Z,95332.02
2018-08-07T02:44:09.110Z,95331.81
2018-08-07T02:46:38.241Z,95335.10
2018-08-07T02:49:07.275Z,95335.57
2018-08-07T02:51:36.347Z,95337.98
2018-08-07T02:56:41.130Z,95337.03
2018-08-07T02:59:10.169Z,95335.69
2018-08-07T03:01:39.237Z,95339.75
2018-08-07T03:04:08.306Z,95340.38
2018-08-07T03:06:37.377Z,95336.31
2018-08-07T03:09:06.410Z,95338.63
2018-08-07T03:14:11.169Z,95344.01
2018-08-07T03:16:40.217Z,95343.69
2018-08-07T03:19:09.306Z,95353.12
2018-08-07T03:21:38.345Z,95352.09
2018-08-07T03:24:07.559Z,95354.91
2018-08-07T03:26:36.600Z,95359.30
2018-08-07T03:29:05.653Z,95357.38
2018-08-07T03:31:34.706Z,95361.17
2018-08-07T03:34:03.752Z,95360.84
2018-08-07T03:41:44.380Z,95365.34
2018-08-07T03:44:13.442Z,95369.69
2018-08-07T03:46:42.492Z,95376.70
2018-08-07T03:49:11.606Z,95384.88
2018-08-07T03:51:40.605Z,95383.89
2018-08-07T03:54:09.656Z,95384.75
2018-08-07T03:59:14.519Z,95388.52
2018-08-07T04:04:19.367Z,95392.69
2018-08-07T04:06:49.375Z,95392.55
2018-08-07T04:09:18.414Z,95392.58
2018-08-07T04:11:47.462Z,95388.88
2018-08-07T04:14:17.523Z,95388.80
2018-08-07T04:16:46.576Z,95389.98
2018-08-07T04:19:15.626Z,95394.84
2018-08-07T04:21:44.681Z,95395.39
2018-08-07T04:24:13.722Z,95395.95
2018-08-07T04:26:42.776Z,95389.23
2018-08-07T04:29:12.789Z,95391.90
2018-08-07T04:31:41.869Z,95394.42
2018-08-07T04:34:11.332Z,95392.44
2018-08-07T04:36:40.373Z,95389.28
2018-08-07T04:39:09.429Z,95387.53
2018-08-07T04:41:39.416Z,95380.05
2018-08-07T04:44:08.466Z,95379.51
2018-08-07T04:46:37.504Z,95377.36
2018-08-07T04:49:06.565Z,95378.02
2018-08-07T04:51:35.638Z,95380.89
2018-08-07T04:54:04.670Z,95379.89
2018-08-07T04:56:33.733Z,95377.94
2018-08-07T05:04:15.286Z,95375.84
2018-08-07T05:06:44.429Z,95376.36
2018-08-07T05:09:13.485Z,95375.96
2018-08-07T05:11:42.541Z,95380.87
2018-08-07T05:14:11.592Z,95376.05
2018-08-07T05:16:40.637Z,95379.81
2018-08-07T05:19:09.685Z,95382.77
2018-08-07T05:21:38.729Z,95380.41
2018-08-07T05:24:07.807Z,95381.77
2018-08-07T05:26:38.015Z,95383.33
2018-08-07T05:29:07.051Z,95380.24
2018-08-07T05:31:36.100Z,95380.59
2018-08-07T05:34:05.324Z,95376.55
2018-08-07T05:36:34.470Z,95378.45
2018-08-07T05:39:03.549Z,95380.50
2018-08-07T05:41:32.657Z,95380.48
2018-08-07T05:46:37.570Z,95376.22
2018-08-07T05:49:06.610Z,95374.53
2018-08-07T05:51:35.667Z,95376.95
2018-08-07T05:54:04.773Z,95382.67
2018-08-07T05:56:33.935Z,95379.25
2018-08-07T05:59:02.999Z,95385.20
2018-08-07T06:01:32.046Z,95380.19
2018-08-07T06:04:01.103Z,95382.10
2018-08-07T06:06:30.185Z,95384.67
2018-08-07T06:09:01.515Z,95386.41
2018-08-07T06:11:30.645Z,95385.34
2018-08-07T06:13:59.698Z,95385.59
2018-08-07T06:16:28.831Z,95386.23
2018-08-07T06:18:58.016Z,95385.37
2018-08-07T06:21:27.065Z,95386.80
2018-08-07T06:23:57.138Z,95389.07
2018-08-07T06:26:26.216Z,95392.19
2018-08-07T06:28:55.279Z,95396.70
2018-08-07T06:31:24.720Z,95394.89
2018-08-07T06:33:54.684Z,95400.16
2018-08-07T06:36:23.729Z,95398.28
2018-08-07T06:38:54.169Z,95400.13
2018-08-07T06:41:23.250Z,95397.45
2018-08-07T06:46:31.549Z,95397.03
2018-08-07T06:51:36.441Z,95401.05
2018-08-07T06:54:05.519Z,95393.84
2018-08-07T06:56:34.548Z,95394.94
2018-08-07T06:59:03.600Z,95390.98
2018-08-07T07:01:32.691Z,95390.98
2018-08-07T07:04:03.641Z,95389.55
2018-08-07T07:06:32.719Z,95387.15
2018-08-07T07:11:37.547Z,95383.48
2018-08-07T07:14:06.683Z,95383.33
2018-08-07T07:16:35.737Z,95381.78
2018-08-07T07:19:04.793Z,95379.71
2018-08-07T07:24:10.667Z,95374.00
2018-08-07T07:29:15.549Z,95373.00
2018-08-07T07:31:44.902Z,95373.14
2018-08-07T07:34:13.966Z,95371.23
2018-08-07T07:36:43.941Z,95372.07
2018-08-07T07:41:48.817Z,95372.67
2018-08-07T07:44:18.817Z,95373.86
2018-08-07T07:46:48.925Z,95380.20
2018-08-07T07:49:18.865Z,95374.05
2018-08-07T07:51:48.893Z,95374.55
2018-08-07T07:54:18.069Z,95374.13
2018-08-07T07:59:22.979Z,95373.95
2018-08-07T08:01:53.510Z,95372.25
2018-08-07T08:04:24.521Z,95375.37
2018-08-07T08:06:53.567Z,95374.52
2018-08-07T08:09:22.613Z,95371.45
2018-08-07T08:11:51.736Z,95376.38
2018-08-07T08:14:20.793Z,95372.31
2018-08-07T08:16:50.789Z,95373.28
2018-08-07T08:19:19.848Z,95374.52
2018-08-07T08:21:48.923Z,95376.69
2018-08-07T08:24:17.974Z,95378.17
2018-08-07T08:29:23.969Z,95373.83
2018-08-07T08:31:52.874Z,95375.34
2018-08-07T08:34:21.901Z,95373.42
2018-08-07T08:36:50.949Z,95373.35
2018-08-07T08:39:19.993Z,95374.55
2018-08-07T08:41:51.418Z,95377.90
2018-08-07T08:44:20.473Z,95373.87
2018-08-07T08:46:52.902Z,95372.44
2018-08-07T08:51:57.815Z,95375.62
2018-08-07T08:54:26.865Z,95372.96
2018-08-07T08:56:55.909Z,95379.25
2018-08-07T08:59:24.978Z,95383.80
2018-08-07T09:01:54.052Z,95389.25
2018-08-07T09:06:58.942Z,95389.57
2018-08-07T09:09:27.996Z,95391.02
2018-08-07T09:11:57.069Z,95387.02
2018-08-07T09:14:26.131Z,95387.31
2018-08-07T09:16:55.221Z,95383.37
2018-08-07T09:19:25.261Z,95376.73
2018-08-07T09:21:54.294Z,95376.25
2018-08-07T09:24:23.354Z,95375.77
2018-08-07T09:26:52.394Z,95371.81
2018-08-07T09:29:21.449Z,95373.09
2018-08-07T09:31:50.566Z,95366.42
2018-08-07T09:34:19.568Z,95371.09
2018-08-07T09:36:48.625Z,95368.88
2018-08-07T09:39:17.681Z,95371.80
2018-08-07T09:41:46.790Z,95375.43
2018-08-07T09:44:15.845Z,95381.32
2018-08-07T09:46:44.918Z,95376.32
2018-08-07T09:49:13.976Z,95383.67
2018-08-07T09:54:18.891Z,95375.75
2018-08-07T09:59:23.747Z,95367.69
2018-08-07T10:01:52.799Z,95360.30
2018-08-07T10:04:21.851Z,95352.93
2018-08-07T10:06:50.908Z,95352.03
2018-08-07T10:09:19.969Z,95353.11
2018-08-07T10:14:28.535Z,95352.64
2018-08-07T10:16:57.577Z,95354.99
2018-08-07T10:19:26.735Z,95351.06
2018-08-07T10:21:55.823Z,95348.82
2018-08-07T10:24:24.864Z,95343.69
2018-08-07T10:26:55.084Z,95342.84
2018-08-07T10:29:24.141Z,95339.34
2018-08-07T10:31:53.204Z,95336.02
2018-08-07T10:34:22.489Z,95331.59
2018-08-07T10:36:51.546Z,95329.17
2018-08-07T10:39:20.604Z,95329.25
2018-08-07T10:41:50.123Z,95328.02
2018-08-07T10:44:19.203Z,95328.70
2018-08-07T10:46:50.226Z,95324.11
2018-08-07T10:49:19.297Z,95331.86
2018-08-07T10:51:48.413Z,95322.70
2018-08-07T10:54:17.460Z,95326.59
2018-08-07T10:56:46.521Z,95321.33
2018-08-07T10:59:15.568Z,95326.43
2018-08-07T11:01:45.652Z,95322.23
2018-08-07T11:04:14.704Z,95321.04
2018-08-07T11:06:43.772Z,95318.31
2018-08-07T11:11:48.510Z,95320.90
2018-08-07T11:14:18.512Z,95317.98
2018-08-07T11:16:47.552Z,95317.14
2018-08-07T11:19:16.903Z,95312.13
2018-08-07T11:21:45.934Z,95311.63
2018-08-07T11:24:15.231Z,95312.23
2018-08-07T11:26:44.265Z,95307.24
2018-08-07T11:29:13.328Z,95304.23
2018-08-07T11:31:43.011Z,95298.70
2018-08-07T11:34:12.061Z,95293.70
2018-08-07T11:36:41.713Z,95290.45
2018-08-07T11:39:11.047Z,95287.69
2018-08-07T11:41:41.066Z,95291.29
2018-08-07T11:44:10.104Z,95288.20
2018-08-07T11:46:39.152Z,95286.25
2018-08-07T11:49:08.227Z,95280.28
2018-08-07T11:51:37.278Z,95279.77
2018-08-07T11:54:07.481Z,95278.66
2018-08-07T11:56:36.609Z,95275.27
2018-08-07T12:01:41.379Z,95273.31
2018-08-07T12:04:10.477Z,95270.57
2018-08-07T12:06:39.802Z,95267.55
2018-08-07T12:09:08.856Z,95268.27
2018-08-07T12:14:13.625Z,95260.08
2018-08-07T12:16:42.677Z,95266.25
2018-08-07T12:19:11.929Z,95256.05
2018-08-07T12:21:41.015Z,95250.61
2018-08-07T12:24:10.029Z,95248.16
2018-08-07T12:26:41.046Z,95255.41
2018-08-07T12:29:10.108Z,95249.06
2018-08-07T12:31:39.181Z,95249.77
2018-08-07T12:34:08.462Z,95254.84
2018-08-07T12:36:37.518Z,95256.69
2018-08-07T12:39:06.582Z,95251.27
2018-08-07T12:41:36.009Z,95248.69
2018-08-07T12:44:05.057Z,95250.03
2018-08-07T12:49:10.836Z,95239.48
2018-08-07T12:51:39.914Z,95255.52
2018-08-07T12:54:09.264Z,95259.44
2018-08-07T12:56:38.321Z,95255.75
2018-08-07T12:59:07.364Z,95252.08
2018-08-07T13:01:36.622Z,95249.89
2018-08-07T13:09:17.849Z,95247.95
2018-08-07T13:11:47.176Z,95253.23
2018-08-07T13:16:52.298Z,95249.32
2018-08-07T13:19:21.343Z,95245.05
2018-08-07T13:24:26.276Z,95248.73
2018-08-07T13:26:55.384Z,95240.16
2018-08-07T13:32:00.233Z,95239.80
2018-08-07T13:34:29.506Z,95239.98
2018-08-07T13:36:58.585Z,95236.86
2018-08-07T13:42:03.470Z,95237.25
2018-08-07T13:44:32.649Z,95239.86
2018-08-07T13:47:01.988Z,95244.28
2018-08-07T13:49:31.084Z,95238.64
2018-08-07T13:52:00.146Z,95246.67
2018-08-07T13:54:32.716Z,95244.76
2018-08-07T13:57:01.744Z,95247.58
2018-08-07T13:59:31.749Z,95245.41
2018-08-07T14:02:03.817Z,95242.22
2018-08-07T14:04:32.877Z,95249.42
2018-08-07T14:09:38.729Z,95247.53
2018-08-07T14:14:43.573Z,95247.42
2018-08-07T14:17:12.618Z,95250.42
2018-08-07T14:19:41.727Z,95251.66
2018-08-07T14:22:10.806Z,95246.66
2018-08-07T14:24:39.850Z,95252.56
2018-08-07T14:27:08.936Z,95253.56
2018-08-07T14:29:37.984Z,95245.44
2018-08-07T14:32:08.073Z,95246.73
2018-08-07T14:34:37.121Z,95245.53
2018-08-07T14:37:06.175Z,95237.17
2018-08-07T14:39:35.240Z,95236.26
2018-08-07T14:42:04.355Z,95230.71
2018-08-07T14:44:33.351Z,95228.84
2018-08-07T14:47:02.414Z,95230.12
2018-08-07T14:49:31.460Z,95224.47
2018-08-07T14:52:00.689Z,95213.34
2018-08-07T14:57:05.524Z,95213.23
2018-08-07T14:59:34.589Z,95215.72
2018-08-07T15:02:03.749Z,95207.44
2018-08-07T15:07:08.768Z,95208.26
2018-08-07T15:09:37.903Z,95214.17
2018-08-07T15:12:06.933Z,95211.84
2018-08-07T15:14:36.685Z,95220.41
2018-08-07T15:17:15.298Z,95217.64
2018-08-07T15:19:46.656Z,95224.86
2018-08-07T15:22:15.695Z,95218.14
2018-08-07T15:24:44.743Z,95219.61
2018-08-07T15:27:14.828Z,95224.59
2018-08-07T15:29:43.881Z,95228.09
2018-08-07T15:32:13.034Z,95233.67
2018-08-07T15:34:42.537Z,95242.95
2018-08-07T15:37:11.578Z,95242.39
2018-08-07T15:39:40.636Z,95242.48
2018-08-07T15:42:10.881Z,95239.40
2018-08-07T15:44:43.788Z,95239.16
2018-08-07T15:47:12.828Z,95233.05
2018-08-07T15:49:41.890Z,95228.28
2018-08-07T15:52:10.950Z,95229.08
2018-08-07T15:57:15.947Z,95225.08
2018-08-07T15:59:44.976Z,95220.46
2018-08-07T16:02:14.037Z,95217.33
2018-08-07T16:04:46.601Z,95217.21
2018-08-07T16:07:15.815Z,95220.50
2018-08-07T16:09:44.880Z,95219.62
2018-08-07T16:12:14.935Z,95213.27
2018-08-07T16:14:44.200Z,95207.31
2018-08-07T16:17:14.248Z,95207.09
2018-08-07T16:19:43.297Z,95209.70
2018-08-07T16:24:48.141Z,95204.90
2018-08-07T16:27:17.203Z,95203.60
2018-08-07T16:29:46.295Z,95198.31
2018-08-07T16:37:26.700Z,95193.19
2018-08-07T16:39:56.710Z,95192.77
2018-08-07T16:42:25.759Z,95198.86
2018-08-07T16:47:30.607Z,95201.10
2018-08-07T16:49:59.660Z,95201.42
2018-08-07T16:52:28.714Z,95202.03
2018-08-07T16:57:33.533Z,95188.14
2018-08-07T17:00:04.567Z,95191.09
2018-08-07T17:02:34.582Z,95193.34
2018-08-07T17:05:03.633Z,95195.53
2018-08-07T17:07:33.274Z,95194.41
2018-08-07T17:12:38.493Z,95195.20
2018-08-07T17:15:07.540Z,95193.91
2018-08-07T17:17:36.580Z,95195.55
2018-08-07T17:20:05.811Z,95197.21
2018-08-07T17:22:34.873Z,95196.19
2018-08-07T17:25:08.877Z,95192.87
2018-08-07T17:27:43.508Z,95193.11
2018-08-07T17:30:12.710Z,95195.38
2018-08-07T17:32:41.745Z,95197.04
2018-08-07T17:37:46.567Z,95198.19
2018-08-07T17:40:15.611Z,95200.02
2018-08-07T17:42:44.657Z,95202.23
2018-08-07T17:45:13.704Z,95203.80
2018-08-07T17:47:42.775Z,95205.33
2018-08-07T17:55:23.254Z,95201.49
2018-08-07T17:57:54.437Z,95200.94
2018-08-07T18:02:59.324Z,95192.96
2018-08-07T18:10:39.981Z,95186.64
2018-08-07T18:13:09.055Z,95184.22
2018-08-07T18:15:38.112Z,95184.41
2018-08-07T18:18:07.254Z,95185.03
2018-08-07T18:25:47.871Z,95188.67
2018-08-07T18:30:52.611Z,95186.14
2018-08-07T18:35:57.349Z,95186.01
2018-08-07T18:38:26.394Z,95187.84
2018-08-07T18:46:06.975Z,95177.94
2018-08-07T18:48:36.038Z,95173.90
2018-08-07T18:53:40.901Z,95173.03
2018-08-07T18:56:09.947Z,95168.77
2018-08-07T19:01:15.775Z,95174.96
2018-08-07T19:03:44.934Z,95172.27
2018-08-07T19:08:49.730Z,95167.39
2018-08-07T19:11:19.747Z,95159.77
2018-08-07T19:13:49.758Z,95153.11
2018-08-07T19:21:30.396Z,95161.81
2018-08-07T19:23:59.434Z,95159.78
2018-08-07T19:26:28.494Z,95161.26
2018-08-07T19:28:57.531Z,95157.85
2018-08-07T19:31:26.579Z,95162.05
2018-08-07T19:33:55.685Z,95162.95
2018-08-07T19:36:25.666Z,95167.87
2018-08-07T19:38:59.169Z,95170.09
2018-08-07T19:41:28.226Z,95171.06
2018-08-07T19:43:57.523Z,95170.66
2018-08-07T19:46:26.570Z,95176.24
2018-08-07T19:48:55.627Z,95176.47
2018-08-07T19:51:24.677Z,95183.87
2018-08-07T19:56:29.447Z,95190.20
2018-08-07T19:58:58.535Z,95195.94
2018-08-07T20:04:03.386Z,95195.42
2018-08-07T20:09:08.141Z,95188.19
2018-08-07T20:11:37.229Z,95184.80
2018-08-07T20:14:07.238Z,95176.44
2018-08-07T20:16:36.379Z,95173.98
2018-08-07T20:19:05.449Z,95175.75
2018-08-07T20:21:34.521Z,95174.73
2018-08-07T20:24:03.633Z,95176.40
2018-08-07T20:26:32.655Z,95174.77
2018-08-07T20:29:01.787Z,95172.66
2018-08-07T20:31:30.869Z,95174.70
2018-08-07T20:34:00.857Z,95174.42
2018-08-07T20:36:29.925Z,95172.58
2018-08-07T20:38:58.974Z,95173.91
2018-08-07T20:44:03.826Z,95170.59
2018-08-07T20:49:08.675Z,95172.79
2018-08-07T20:54:13.532Z,95179.03
2018-08-07T20:56:42.623Z,95176.55
2018-08-07T20:59:11.679Z,95178.17
2018-08-07T21:01:40.738Z,95184.85
2018-08-07T21:04:09.837Z,95191.06
2018-08-07T21:06:40.930Z,95189.09
2018-08-07T21:11:46.108Z,95182.41
2018-08-07T21:14:15.204Z,95178.17
2018-08-07T21:19:19.983Z,95185.02
2018-08-07T21:24:27.273Z,95180.83
2018-08-07T21:26:57.279Z,95184.23
2018-08-07T21:29:27.322Z,95191.72
2018-08-07T21:34:32.190Z,95191.87
2018-08-07T21:37:01.274Z,95194.41
2018-08-07T21:42:06.137Z,95188.47
2018-08-07T21:47:10.920Z,95194.23
2018-08-07T21:49:40.562Z,95196.88
2018-08-07T21:52:09.597Z,95198.01
2018-08-07T21:54:38.725Z,95195.59
2018-08-07T21:57:07.850Z,95193.33
2018-08-07T22:02:12.637Z,95199.63
2018-08-07T22:07:17.513Z,95198.19
2018-08-07T22:09:46.559Z,95198.53
2018-08-07T22:12:15.609Z,95192.39
2018-08-07T22:14:44.674Z,95190.19
2018-08-07T22:17:13.742Z,95194.02
2018-08-07T22:19:42.806Z,95200.11
2018-08-07T22:22:11.848Z,95195.12
2018-08-07T22:27:16.637Z,95194.98
2018-08-07T22:29:45.676Z,95196.05
2018-08-07T22:32:14.726Z,95197.58
2018-08-07T22:34:43.778Z,95197.92
2018-08-07T22:37:12.837Z,95198.31
2018-08-07T22:39:41.922Z,95199.34
2018-08-07T22:42:11.046Z,95195.62
2018-08-07T22:44:40.188Z,95196.48
2018-08-07T22:49:44.984Z,95191.39
2018-08-07T22:54:50.734Z,95188.47
2018-08-07T22:57:20.761Z,95188.55
2018-08-07T22:59:49.875Z,95187.78
2018-08-07T23:02:18.881Z,95185.45
2018-08-07T23:07:24.621Z,95185.33
2018-08-07T23:09:54.637Z,95181.80
2018-08-07T23:12:23.684Z,95184.66
2018-08-07T23:14:52.771Z,95188.77
2018-08-07T23:17:21.857Z,95187.28
2018-08-07T23:19:50.906Z,95191.58
2018-08-07T23:22:19.958Z,95190.81
2018-08-07T23:27:24.654Z,95194.23
2018-08-07T23:29:53.741Z,95195.19
2018-08-07T23:32:22.807Z,95197.70
2018-08-07T23:34:51.840Z,95189.72
2018-08-07T23:37:20.894Z,95182.33
2018-08-07T23:42:25.753Z,95178.87
2018-08-07T23:47:30.606Z,95176.09
2018-08-07T23:52:35.472Z,95173.63
2018-08-07T23:55:04.544Z,95174.13
2018-08-07T23:57:33.651Z,95169.07
